Merigold, MS (38759)

8:26 AM CST on February 09, 2016 (GMT -0600)
WKXY North Cleveland | | Change Station
CLOSE
Current Station
Personal Weather Station
Location: Cleveland, MS
Elevation: 144 ft
Nearby Weather Stations
Active Advisory: Wind Advisory

Elev 144 ft 33.79 °N, 90.72 °W | Updated 55 seconds ago

Clear
Clear
36.7 °F
Feels Like 30 °F
N
8.7
Wind Variable Wind from West
Gusts 11.4 mph

Today
High -- | Low -- °F
--% Chance of Precip.
Yesterday
High -- | Low -- °F
Precip. -- in
Pressure 30.07 in
Visibility 10.0 miles
Clouds Clear
Windchill 30 °F
Dew Point 17 °F
Humidity 45%
Rainfall 0.00 in
Snow Depth Not available.
6:53 AM 5:41 PM
New Moon, 1% visible
METAR KRNV 091415Z AUTO 28010KT 10SM CLR 02/M07 A3007 RMK AO2 T00231066
Pressure 30.07 in
Visibility 10.0 miles
Clouds Clear
Windchill 30 °F
Dew Point 17 °F
Humidity 45%
Rainfall 0.00 in
Snow Depth Not available.
6:53 AM 5:41 PM
New Moon, 1% visible
METAR KRNV 091415Z AUTO 28010KT 10SM CLR 02/M07 A3007 RMK AO2 T00231066

10-Day Weather Forecast

Almanac

Astronomy

Feb. 09, 2016 Rise Set
Actual Time
Civil Twilight
Nautical Twilight
Astronomical Twilight
Moon
Length of Visible Light
Length of Day
Tomorrow will be .
, % of the Moon is Illuminated

Today's Extremes

State Highs State Lows

Community

WunderPhotos

Upload Photos

1,891,602 photos uploaded!

WunderBlog® & News

Nearby

Air Quality

  Air Quality AQ Index Pollutant
Not available.

Snow Depth

Station Depth Elevation

Earthquake Activity

City Distance Mag. Time & Date
Minimum magnitude displayed is 2.5.

Coastal Water Temperatures

Place Temperature

Stations

Nearby Weather Stations

Station Location Temp. Windchill Dew Point Humidity Wind Precip. Elev Updated Type
                   

Watches & Warnings

Wind Advisory
Issued: 3:08 AM CST Feb. 9, 2016 – National Weather Service

... Wind Advisory in effect from 10 am this morning to 6 PM CST
this evening...

The National Weather Service in Jackson has issued a Wind
Advisory... which is in effect from 10 am this morning to 6 PM CST
this evening.

* Timing... 10 am until 6 PM

* winds... 20 to 30 mph with gusts around 40 mph

* impacts... these winds can knock down rotten trees and affect
travel in high profile vehicles

Precautionary/preparedness actions...

A Wind Advisory means that winds of 20 to 30 mph are expected. Winds
this strong can make driving difficult... especially for high profile
vehicles. Use extra caution when driving.

Wind gusts around 40 mph can occasionally bring down large limbs and
rotten trees causing serious injury and property damage. Exercise
caution when outdoors during these conditions.



26